Grand Forks Air Force Base, ND

9:16 AM CDT on October 23, 2014 (GMT -0500)
Grafton Municipal | Change Station
CLOSE
Current Station
Airport
Location: Grafton,
Elevation: 823 ft
Nearby Weather Stations

Elev 823 ft 48.40 °N, 97.37 °W | Updated 21 minutes ago

Clear
Clear
45 °F
Feels Like 40 °F
N
9
Wind Variable Wind from SW

Today
High -- | Low -- °F
--% Chance of Precip.
Yesterday
High -- | Low -- °F
Precip. -- in
8:00 AM 6:26 PM
Waning Crescent, 0% visible
Pressure 29.83 in
Visibility 10.0 miles
Clouds Clear
Windchill 40 °F
Dew Point 41 °F
Humidity 87%
Rainfall 0.00 in
Snow Depth Not available.
UV 0 out of 12
Pollen .90 out of 12
Air Quality Not available.
Flu Activity Local Activity
METAR KGAF 231355Z AUTO 23008KT 10SM CLR 07/05 A2983 RMK AO2

More Conditions Fewer Conditions

Pressure 29.83 in
Visibility 10.0 miles
Clouds Clear
Windchill 40 °F
Dew Point 41 °F
Humidity 87%
Rainfall 0.00 in
Snow Depth Not available.
UV 0 out of 12
Pollen .90 out of 12
Air Quality Not available.
Flu Activity Local Activity
METAR KGAF 231355Z AUTO 23008KT 10SM CLR 07/05 A2983 RMK AO2

More Conditions Fewer Conditions

10-Day Weather Forecast

Almanac

Astronomy

Oct. 23, 2014 Rise Set
Actual Time 8:00 AM CDT 6:26 PM CDT
Civil Twilight 7:28 AM CDT 6:57 PM CDT
Nautical Twilight 6:52 AM CDT 7:33 PM CDT
Astronomical Twilight 6:16 AM CDT 8:09 PM CDT
Moon 7:40 AM CDT 6:28 PM CDT
Length of Visible Light 11h 28m
Length of Day
10h 25m
Tomorrow will be 3m 16s shorter.
Waning Crescent, 0% of the Moon is Illuminated
Today
Waning Crescent
Oct 23
New
Oct 30
First Quarter
Nov 6
Full
Nov 14
Last Quarter

Today's Extremes

State Highs State Lows

Community

WunderPhotos

Upload Photos

1,764,256 photos uploaded!

Nearby

Snow Depth

Station Depth Elevation
No new snow has been reported.

Earthquake Activity

City Distance Mag. Time & Date
No recent earthquake activity has been reported nearby.
Minimum magnitude displayed is 2.5.

Coastal Water Temperatures

Place Temperature
No Stations Reporting

Nearby Weather Stations